Terminal Aerodrome Forecast
Issued by NWS Wichita, KS

Home | Current Version | Previous Version | Text Only | Print | Product List | Glossary Off
Versions: 1 2 3 4 5 6 7 8 9 10 11 12 13 14

000
FTUS43 KICT 281723
TAFICT
TAF
KICT 281723Z 2818/2918 22010G20KT P6SM BKN250
     FM282100 27013G23KT P6SM SCT250
     FM290300 32015KT P6SM SCT250
     FM290600 35012G24KT P6SM SCT250
     FM291400 35014KT P6SM SCT035=

USA.gov is the U.S. government's official web portal to all federal, state and local government web resources and services.